Time;durP1;ratioP1;P1;durP2;ratioP2;P2;SDS_P1;SDS_P2;PMS_P1;PMS_P2;Temp;Humidity;BMP_temperature;BMP_pressure;BME280_temperature;BME280_humidity;BME280_pressure;Samples;Min_cycle;Max_cycle;Signal;HPM_P1;HPM_P2
2021/04/15 00:00:27;;;;;;;16.67;8.23;;;1.20;99.90;;;;;;5089245;28;20202;-73
2021/04/15 00:03:16;;;;;;;16.33;8.23;;;1.20;99.90;;;;;;5089945;28;20207;-73
2021/04/15 00:06:05;;;;;;;11.90;7.23;;;1.20;99.90;;;;;;5088354;28;20212;-72
2021/04/15 00:08:53;;;;;;;16.17;7.90;;;1.20;99.90;;;;;;5089280;28;20722;-72
2021/04/15 00:11:41;;;;;;;13.40;6.80;;;1.10;99.90;;;;;;5089967;28;20200;-73
2021/04/15 00:14:28;;;;;;;13.73;7.63;;;1.10;99.90;;;;;;5089157;28;20206;-72
2021/04/15 00:17:15;;;;;;;12.13;6.73;;;1.10;99.90;;;;;;5089423;28;20207;-72
2021/04/15 00:20:03;;;;;;;14.43;7.40;;;1.10;99.90;;;;;;5089575;28;20254;-73
2021/04/15 00:22:50;;;;;;;14.17;7.97;;;1.10;99.90;;;;;;5089684;28;20223;-73
2021/04/15 00:25:38;;;;;;;12.23;7.57;;;1.10;99.90;;;;;;5088364;28;20200;-72
2021/04/15 00:28:26;;;;;;;12.63;7.10;;;1.10;99.90;;;;;;5089620;28;20647;-71
2021/04/15 00:31:13;;;;;;;11.33;6.57;;;1.10;99.90;;;;;;5074616;28;20213;-72
2021/04/15 00:34:00;;;;;;;8.90;5.93;;;1.10;99.90;;;;;;5093163;28;20265;-72
2021/04/15 00:36:47;;;;;;;10.33;6.00;;;1.10;99.90;;;;;;5085243;28;20208;-72
2021/04/15 00:39:35;;;;;;;9.80;6.00;;;1.10;99.90;;;;;;5092077;28;20257;-72
2021/04/15 00:42:22;;;;;;;8.83;5.60;;;1.10;99.90;;;;;;5092131;28;20630;-72
2021/04/15 00:45:13;;;;;;;7.47;4.90;;;1.10;99.90;;;;;;5091897;28;20283;-72
2021/04/15 00:48:03;;;;;;;10.17;6.00;;;1.10;99.90;;;;;;5089900;28;20203;-72
2021/04/15 00:50:52;;;;;;;9.13;6.03;;;1.10;99.90;;;;;;5092699;28;20598;-72
2021/04/15 00:53:41;;;;;;;9.07;5.70;;;1.10;99.90;;;;;;5087034;28;20307;-72
2021/04/15 00:56:28;;;;;;;12.30;5.40;;;1.00;99.90;;;;;;5093233;28;20220;-72
2021/04/15 00:59:15;;;;;;;10.20;5.90;;;1.00;99.90;;;;;;5086587;28;20207;-72
2021/04/15 01:02:04;;;;;;;8.53;5.20;;;1.00;99.90;;;;;;5091143;28;20203;-72
2021/04/15 01:04:52;;;;;;;8.83;5.37;;;0.90;99.90;;;;;;5084299;28;20215;-72
2021/04/15 01:07:42;;;;;;;9.30;4.60;;;1.00;99.90;;;;;;5092578;28;20224;-71
2021/04/15 01:10:30;;;;;;;8.37;5.43;;;0.90;99.90;;;;;;5086334;28;20606;-71
2021/04/15 01:13:35;;;;;;;9.47;5.37;;;0.90;99.90;;;;;;5087740;28;20230;-72
2021/04/15 01:16:28;;;;;;;8.37;5.27;;;0.90;99.90;;;;;;5088096;28;20220;-71
2021/04/15 01:19:36;;;;;;;9.93;5.70;;;0.90;99.90;;;;;;5079798;28;20658;-72
2021/04/15 01:22:50;;;;;;;11.33;6.40;;;0.90;99.90;;;;;;5086587;28;20546;-71
2021/04/15 01:26:04;;;;;;;8.97;5.67;;;0.90;99.90;;;;;;5084474;28;20192;-72
2021/04/15 01:29:01;;;;;;;10.47;5.73;;;0.90;99.90;;;;;;5091714;28;20204;-72
2021/04/15 01:32:00;;;;;;;9.60;5.60;;;0.80;99.90;;;;;;5091959;28;20200;-71
2021/04/15 01:34:51;;;;;;;9.17;6.43;;;0.80;99.90;;;;;;5091899;28;20291;-70
2021/04/15 01:37:41;;;;;;;10.63;6.80;;;0.80;99.90;;;;;;5091115;28;20195;-72
2021/04/15 01:40:30;;;;;;;11.73;7.13;;;0.80;99.90;;;;;;5089894;28;20195;-72
2021/04/15 01:43:20;;;;;;;10.13;6.70;;;0.80;99.90;;;;;;5080330;28;20615;-72
2021/04/15 01:46:08;;;;;;;9.43;6.27;;;0.80;99.90;;;;;;5090608;28;20200;-72
2021/04/15 01:48:55;;;;;;;10.07;5.73;;;0.90;99.90;;;;;;5090418;28;20232;-72
2021/04/15 01:51:44;;;;;;;11.93;6.87;;;0.90;99.90;;;;;;5090966;28;20196;-70
2021/04/15 01:54:34;;;;;;;9.13;6.10;;;0.90;99.90;;;;;;5085501;28;20234;-72
2021/04/15 01:57:23;;;;;;;8.50;5.47;;;0.90;99.90;;;;;;5091375;28;20290;-72
2021/04/15 02:00:15;;;;;;;11.73;6.17;;;0.90;99.90;;;;;;5091302;28;20196;-72
2021/04/15 02:03:05;;;;;;;11.00;6.40;;;0.80;99.90;;;;;;5082761;28;20200;-72
2021/04/15 02:05:55;;;;;;;12.07;6.33;;;0.90;99.90;;;;;;5089858;28;20212;-72
2021/04/15 02:08:43;;;;;;;10.37;6.80;;;0.90;99.90;;;;;;5091228;28;20196;-72
2021/04/15 02:11:33;;;;;;;13.23;6.77;;;0.90;99.90;;;;;;5091262;28;20204;-71
2021/04/15 02:14:22;;;;;;;13.57;8.20;;;0.90;99.90;;;;;;5085414;28;20200;-72
2021/04/15 02:17:10;;;;;;;14.17;7.13;;;0.90;99.90;;;;;;5090445;28;20643;-71
2021/04/15 02:19:59;;;;;;;18.70;10.10;;;0.90;99.90;;;;;;5091331;28;20600;-72
2021/04/15 02:22:50;;;;;;;20.43;10.43;;;0.80;99.90;;;;;;5090445;28;20231;-71
2021/04/15 02:25:40;;;;;;;22.73;11.43;;;0.80;99.90;;;;;;5084729;28;20650;-72
2021/04/15 02:28:29;;;;;;;439.50;24.50;;;0.80;99.90;;;;;;5090743;28;20204;-72
2021/04/15 02:31:17;;;;;;;17.90;10.20;;;0.80;99.90;;;;;;5089748;28;20203;-72
2021/04/15 02:34:07;;;;;;;15.90;9.57;;;0.90;99.90;;;;;;5090454;28;20196;-72
2021/04/15 02:36:58;;;;;;;17.50;8.40;;;0.90;99.90;;;;;;5090972;28;20210;-71
2021/04/15 02:39:46;;;;;;;13.47;8.40;;;0.90;99.90;;;;;;5090580;28;20712;-72
2021/04/15 02:42:35;;;;;;;13.27;7.97;;;0.80;99.90;;;;;;5081989;28;20596;-72
2021/04/15 02:45:29;;;;;;;13.53;7.93;;;0.80;99.90;;;;;;5090187;28;20283;-71
2021/04/15 02:48:19;;;;;;;10.07;6.23;;;0.80;99.90;;;;;;5090688;28;20318;-72
2021/04/15 02:51:09;;;;;;;13.20;8.23;;;0.80;99.90;;;;;;5090022;28;20200;-71
2021/04/15 02:54:06;;;;;;;13.80;7.70;;;0.80;99.90;;;;;;5088360;28;20226;-71
2021/04/15 02:56:55;;;;;;;13.67;7.63;;;0.80;99.90;;;;;;5081797;28;20228;-72
2021/04/15 02:59:43;;;;;;;14.43;7.83;;;0.70;99.90;;;;;;5089349;28;20709;-72
2021/04/15 03:02:32;;;;;;;15.60;8.43;;;0.70;99.90;;;;;;5082568;28;20572;-72
2021/04/15 03:05:20;;;;;;;11.47;6.97;;;0.70;99.90;;;;;;5090241;28;20200;-72
2021/04/15 03:08:07;;;;;;;13.63;7.57;;;0.80;99.90;;;;;;5082213;28;20200;-72
2021/04/15 03:10:58;;;;;;;8.60;5.23;;;0.80;99.90;;;;;;5090373;28;20643;-71
2021/04/15 03:13:46;;;;;;;13.80;7.07;;;0.80;99.90;;;;;;5083880;28;20312;-72
2021/04/15 03:16:36;;;;;;;11.77;6.53;;;0.70;99.90;;;;;;5090113;28;20227;-72
2021/04/15 03:19:24;;;;;;;14.77;7.17;;;0.70;99.90;;;;;;5082576;28;20200;-72
2021/04/15 03:22:13;;;;;;;11.77;7.17;;;0.70;99.90;;;;;;5088939;28;20223;-72
2021/04/15 03:25:01;;;;;;;16.10;8.00;;;0.70;99.90;;;;;;5088809;28;20192;-72
2021/04/15 03:27:52;;;;;;;15.20;7.57;;;0.70;99.90;;;;;;5090083;28;20274;-72
2021/04/15 03:30:43;;;;;;;12.27;7.57;;;0.70;99.90;;;;;;5083762;28;20228;-72
2021/04/15 03:33:35;;;;;;;12.97;7.50;;;0.70;99.90;;;;;;5089037;28;20241;-72
2021/04/15 03:36:25;;;;;;;10.13;6.80;;;0.70;99.90;;;;;;5082683;28;20220;-72
2021/04/15 03:39:13;;;;;;;11.80;6.90;;;0.70;99.90;;;;;;5088834;28;20214;-72
2021/04/15 03:42:05;;;;;;;11.40;7.30;;;0.70;99.90;;;;;;5082809;28;20547;-72
2021/04/15 03:44:56;;;;;;;12.27;7.90;;;0.70;99.90;;;;;;5089858;28;20200;-72
2021/04/15 03:47:44;;;;;;;15.73;8.33;;;0.60;99.90;;;;;;5090300;28;20681;-72
2021/04/15 03:50:36;;;;;;;13.83;7.73;;;0.60;99.90;;;;;;5089968;28;20655;-72
2021/04/15 03:53:25;;;;;;;10.57;6.63;;;0.60;99.90;;;;;;5089602;28;20573;-72
2021/04/15 03:56:15;;;;;;;11.20;6.90;;;0.60;99.90;;;;;;5081068;28;20204;-72
2021/04/15 03:59:04;;;;;;;11.87;6.90;;;0.60;99.90;;;;;;5089798;28;20583;-72
2021/04/15 04:01:53;;;;;;;12.90;6.93;;;0.60;99.90;;;;;;5082797;28;20208;-72
2021/04/15 04:04:42;;;;;;;9.33;5.83;;;0.60;99.90;;;;;;5089735;28;20211;-72
2021/04/15 04:07:31;;;;;;;11.10;6.67;;;0.60;99.90;;;;;;5086659;28;20215;-72
2021/04/15 04:10:20;;;;;;;11.03;7.17;;;0.60;99.90;;;;;;5093358;28;20256;-72
2021/04/15 04:13:17;;;;;;;9.50;5.53;;;0.60;99.90;;;;;;5093194;28;20208;-72
2021/04/15 04:16:06;;;;;;;9.97;6.63;;;0.60;99.90;;;;;;5093643;28;20341;-72
2021/04/15 04:18:57;;;;;;;10.80;6.30;;;0.60;99.90;;;;;;5093578;28;20648;-72
2021/04/15 04:21:48;;;;;;;9.17;6.00;;;0.70;99.90;;;;;;5085442;28;20287;-73
2021/04/15 04:24:38;;;;;;;11.20;6.80;;;0.60;99.90;;;;;;5093298;28;20214;-72
2021/04/15 04:27:27;;;;;;;10.00;5.87;;;0.60;99.90;;;;;;5090442;28;20575;-72
2021/04/15 04:30:16;;;;;;;9.67;6.33;;;0.60;99.90;;;;;;5086435;28;20254;-71
2021/04/15 04:33:04;;;;;;;9.10;5.80;;;0.70;99.90;;;;;;5086577;28;20729;-72
2021/04/15 04:35:52;;;;;;;9.17;4.87;;;0.70;99.90;;;;;;5093485;28;20211;-72
2021/04/15 04:38:39;;;;;;;9.97;5.77;;;0.70;99.90;;;;;;5087228;28;20200;-72
2021/04/15 04:41:28;;;;;;;9.83;6.23;;;0.70;99.90;;;;;;5093022;28;20654;-72
2021/04/15 04:44:18;;;;;;;11.27;6.33;;;0.70;99.90;;;;;;5093620;28;20282;-72
2021/04/15 04:47:09;;;;;;;13.77;5.83;;;0.70;99.90;;;;;;5091954;28;20188;-71
2021/04/15 04:50:01;;;;;;;9.33;5.47;;;0.80;99.90;;;;;;5087705;28;20611;-72
2021/04/15 04:52:49;;;;;;;10.90;5.90;;;0.90;99.90;;;;;;5091674;28;20204;-72
2021/04/15 04:55:38;;;;;;;12.10;6.57;;;0.80;99.90;;;;;;5092908;28;20593;-73
2021/04/15 04:58:25;;;;;;;10.57;6.20;;;0.80;99.90;;;;;;5084614;28;20200;-72
2021/04/15 05:01:12;;;;;;;9.17;5.30;;;0.80;99.90;;;;;;5086364;28;20204;-72
2021/04/15 05:04:00;;;;;;;13.10;6.67;;;0.80;99.90;;;;;;5092989;28;20203;-72
2021/04/15 05:06:47;;;;;;;11.60;6.53;;;0.80;99.90;;;;;;5092530;28;20223;-73
2021/04/15 05:09:36;;;;;;;12.80;6.40;;;0.80;99.90;;;;;;5083018;28;20638;-73
2021/04/15 05:12:25;;;;;;;11.50;6.50;;;0.90;99.90;;;;;;5090587;28;20651;-72
2021/04/15 05:15:13;;;;;;;10.57;6.47;;;0.90;99.90;;;;;;5091623;28;20247;-73
2021/04/15 05:18:00;;;;;;;9.93;6.30;;;0.90;99.90;;;;;;5090383;28;20207;-73
2021/04/15 05:20:47;;;;;;;12.80;5.67;;;0.80;99.90;;;;;;5092459;28;20210;-73
2021/04/15 05:23:37;;;;;;;11.27;5.90;;;0.80;99.90;;;;;;5091862;28;20204;-73
2021/04/15 05:26:26;;;;;;;10.47;6.40;;;0.90;99.90;;;;;;5092017;28;20196;-73
2021/04/15 05:29:16;;;;;;;34.53;7.80;;;0.90;99.90;;;;;;5090005;28;20290;-73
2021/04/15 05:32:25;;;;;;;14.70;7.10;;;0.90;99.90;;;;;;5082491;28;20235;-71
2021/04/15 05:35:15;;;;;;;11.87;6.97;;;1.00;99.90;;;;;;5086497;28;20215;-72
2021/04/15 05:38:03;;;;;;;11.80;7.57;;;0.90;99.90;;;;;;5090541;28;20196;-72
2021/04/15 05:40:50;;;;;;;12.37;6.47;;;1.00;99.90;;;;;;5084881;28;20252;-71
2021/04/15 05:43:43;;;;;;;12.60;6.77;;;1.00;99.90;;;;;;5085482;28;20196;-71
2021/04/15 05:46:37;;;;;;;13.83;7.37;;;1.00;99.90;;;;;;5091890;28;20232;-71
2021/04/15 05:49:25;;;;;;;12.47;6.03;;;1.00;99.90;;;;;;5092169;28;20584;-70
2021/04/15 05:52:26;;;;;;;14.77;8.23;;;1.10;99.90;;;;;;5090217;28;20264;-72
2021/04/15 05:55:15;;;;;;;15.37;7.97;;;1.10;99.90;;;;;;5080039;28;20223;-71
2021/04/15 06:01:42;;;;;;;12.57;7.67;;;1.30;99.90;;;;;;5084586;28;20195;-71
2021/04/15 06:04:35;;;;;;;16.87;8.23;;;1.40;99.90;;;;;;5090841;28;20200;-71
2021/04/15 06:07:23;;;;;;;15.97;8.60;;;1.50;99.90;;;;;;5070230;28;20839;-71
2021/04/15 06:10:11;;;;;;;12.93;7.40;;;1.40;99.90;;;;;;5091682;28;20572;-70
2021/04/15 06:13:06;;;;;;;15.93;8.27;;;1.50;99.90;;;;;;5087216;28;20253;-70
2021/04/15 06:15:59;;;;;;;14.03;6.70;;;1.50;99.90;;;;;;5083551;28;20216;-70
2021/04/15 06:18:50;;;;;;;12.63;5.77;;;1.50;99.90;;;;;;5092339;28;20200;-71
2021/04/15 06:21:40;;;;;;;14.27;7.10;;;1.40;99.90;;;;;;5083110;28;20232;-71
2021/04/15 06:24:29;;;;;;;12.73;6.73;;;1.50;99.90;;;;;;5091548;28;20196;-71
2021/04/15 06:27:17;;;;;;;12.27;7.27;;;1.50;99.90;;;;;;5091451;28;20320;-71
2021/04/15 06:30:17;;;;;;;11.00;6.57;;;1.50;99.90;;;;;;5090478;28;20215;-71
2021/04/15 06:33:08;;;;;;;13.63;6.97;;;1.50;99.90;;;;;;5091644;28;20192;-71
2021/04/15 06:35:59;;;;;;;12.97;7.03;;;1.50;99.90;;;;;;5082682;28;20302;-71
2021/04/15 06:38:59;;;;;;;14.33;6.63;;;1.60;99.90;;;;;;5091735;28;20287;-71
2021/04/15 06:42:28;;;;;;;11.23;7.03;;;1.60;99.90;;;;;;5091206;28;20200;-71
2021/04/15 06:45:37;;;;;;;14.57;6.23;;;1.60;99.90;;;;;;5088346;28;20218;-71
2021/04/15 06:48:49;;;;;;;8.73;5.97;;;1.70;99.90;;;;;;5083189;28;20200;-72
2021/04/15 06:55:39;;;;;;;13.87;6.50;;;1.80;99.90;;;;;;5088106;28;20227;-71
2021/04/15 06:58:47;;;;;;;14.43;6.50;;;1.80;99.90;;;;;;5082536;28;20628;-71
2021/04/15 07:01:46;;;;;;;11.70;6.23;;;1.90;99.90;;;;;;5085134;28;20210;-71
2021/04/15 07:04:36;;;;;;;11.43;5.57;;;1.90;99.90;;;;;;5084901;28;20195;-71
2021/04/15 07:07:26;;;;;;;10.00;5.53;;;2.10;99.90;;;;;;5090104;28;20233;-71
2021/04/15 07:10:23;;;;;;;9.90;5.43;;;2.10;99.90;;;;;;5090093;28;20200;-71
2021/04/15 07:13:30;;;;;;;9.67;5.50;;;2.10;99.90;;;;;;5089834;28;20646;-71
2021/04/15 07:16:39;;;;;;;9.97;5.50;;;2.30;99.90;;;;;;5089752;28;20211;-70
2021/04/15 07:20:01;;;;;;;10.10;5.87;;;2.40;99.90;;;;;;5082978;28;20200;-70
2021/04/15 07:31:02;;;;;;;9.10;5.43;;;2.70;99.90;;;;;;5081058;28;20270;-71
2021/04/15 07:34:35;;;;;;;12.47;6.53;;;2.70;99.90;;;;;;5026482;28;21038;-71
2021/04/15 07:37:39;;;;;;;11.40;6.20;;;2.60;99.90;;;;;;5007937;28;20724;-71
2021/04/15 07:44:45;;;;;;;9.90;5.73;;;2.80;99.90;;;;;;4883756;29;20206;-71
2021/04/15 07:48:16;;;;;;;9.17;5.50;;;2.90;99.90;;;;;;4880428;29;20263;-71
2021/04/15 07:51:32;;;;;;;10.20;4.40;;;2.70;99.90;;;;;;4882985;29;20207;-71
2021/04/15 07:54:36;;;;;;;11.83;5.50;;;2.70;99.90;;;;;;4894555;29;20211;-71
2021/04/15 07:57:44;;;;;;;10.00;6.27;;;2.50;99.90;;;;;;4895857;29;20240;-71
2021/04/15 08:09:15;;;;;;;8.90;5.60;;;2.80;99.90;;;;;;4874344;29;20215;-71
2021/04/15 08:16:25;;;;;;;11.83;6.83;;;2.80;99.90;;;;;;4796824;29;20320;-70
2021/04/15 08:19:46;;;;;;;10.17;6.17;;;3.00;99.90;;;;;;4832943;29;20212;-72
2021/04/15 09:06:41;;;;;;;13.27;6.90;;;3.60;99.90;;;;;;5042487;28;20239;-70
2021/04/15 09:09:35;;;;;;;12.70;7.07;;;3.90;99.90;;;;;;5091920;28;20219;-70
2021/04/15 09:12:52;;;;;;;10.83;6.40;;;3.90;99.90;;;;;;5092933;28;20650;-71
2021/04/15 09:15:47;;;;;;;10.10;5.83;;;4.00;99.90;;;;;;5095667;28;20227;-70
2021/04/15 09:18:38;;;;;;;12.40;6.77;;;3.80;99.90;;;;;;5088829;28;20283;-70
2021/04/15 09:25:11;;;;;;;13.13;6.97;;;3.60;99.90;;;;;;5090871;28;20203;-71
2021/04/15 09:28:05;;;;;;;11.67;6.10;;;3.70;99.90;;;;;;5092888;28;20200;-71
2021/04/15 09:31:00;;;;;;;9.80;6.03;;;3.70;99.90;;;;;;5093324;28;20208;-71
2021/04/15 09:34:32;;;;;;;12.70;6.73;;;3.80;99.90;;;;;;5092915;28;20211;-71
2021/04/15 09:37:52;;;;;;;9.13;6.33;;;3.70;99.90;;;;;;5072010;28;20220;-71
2021/04/15 09:41:20;;;;;;;10.83;6.67;;;3.70;99.90;;;;;;5071997;28;20245;-71
2021/04/15 09:44:33;;;;;;;12.97;7.63;;;4.00;99.90;;;;;;5071320;28;20206;-71
2021/04/15 10:09:58;;;;;;;11.97;6.83;;;3.20;99.90;;;;;;4838779;29;20630;-71
2021/04/15 10:12:57;;;;;;;11.47;6.80;;;3.30;99.90;;;;;;4838852;29;20219;-71
2021/04/15 10:15:49;;;;;;;11.47;6.80;;;3.30;99.90;;;;;;4838417;29;20232;-71
2021/04/15 10:18:50;;;;;;;11.07;6.87;;;3.40;99.90;;;;;;4838365;29;20209;-71
2021/04/15 10:21:43;;;;;;;14.13;7.67;;;3.50;99.90;;;;;;4848105;29;20268;-71
2021/04/15 10:24:44;;;;;;;14.57;8.70;;;3.40;99.90;;;;;;4857559;29;20530;-71
2021/04/15 10:28:10;;;;;;;12.90;8.23;;;3.40;99.90;;;;;;4894429;29;20197;-71
2021/04/15 10:31:24;;;;;;;15.43;9.20;;;3.50;99.90;;;;;;4909489;29;20641;-70
2021/04/15 10:34:45;;;;;;;14.30;8.60;;;3.50;99.90;;;;;;4919034;28;20210;-71
2021/04/15 10:38:01;;;;;;;14.27;8.03;;;3.40;99.90;;;;;;4990941;28;20235;-70
2021/04/15 10:40:55;;;;;;;14.87;8.70;;;3.40;99.90;;;;;;4990332;28;20218;-70
2021/04/15 10:44:12;;;;;;;14.27;8.90;;;3.40;99.90;;;;;;4990225;28;20254;-70
2021/04/15 10:47:05;;;;;;;15.80;8.97;;;3.40;99.90;;;;;;4990793;28;20235;-71
2021/04/15 10:50:01;;;;;;;16.37;9.40;;;3.40;99.90;;;;;;4990151;28;20234;-71
2021/04/15 10:53:04;;;;;;;14.13;9.30;;;3.50;99.90;;;;;;4990746;28;20338;-70
2021/04/15 10:56:04;;;;;;;16.30;8.93;;;3.50;99.90;;;;;;4999878;28;20233;-71
2021/04/15 10:58:52;;;;;;;14.60;8.97;;;3.50;99.90;;;;;;5009832;28;20257;-71
2021/04/15 11:01:43;;;;;;;15.93;8.63;;;3.40;99.90;;;;;;5014802;28;20357;-70
2021/04/15 11:04:31;;;;;;;14.20;7.47;;;3.30;99.90;;;;;;5014882;28;20206;-70
2021/04/15 11:07:21;;;;;;;11.97;7.80;;;3.30;99.90;;;;;;5019487;28;20279;-71
2021/04/15 11:10:53;;;;;;;15.63;9.00;;;3.40;99.90;;;;;;5033837;28;20211;-70
2021/04/15 11:13:40;;;;;;;13.57;7.67;;;3.40;99.90;;;;;;5087475;28;20245;-70
2021/04/15 11:16:28;;;;;;;13.87;7.60;;;3.40;99.90;;;;;;5087346;28;20301;-70
2021/04/15 11:19:16;;;;;;;16.93;8.17;;;3.50;99.90;;;;;;5090018;28;20195;-71
2021/04/15 11:22:17;;;;;;;13.90;7.70;;;3.40;99.90;;;;;;5087058;28;20200;-71
2021/04/15 11:25:16;;;;;;;17.10;8.83;;;3.40;99.90;;;;;;5087724;28;20222;-72
2021/04/15 11:28:08;;;;;;;13.63;8.30;;;3.60;99.90;;;;;;5089978;28;20287;-70
2021/04/15 11:30:56;;;;;;;15.53;9.13;;;3.60;99.90;;;;;;5090454;28;20248;-71
2021/04/15 11:33:45;;;;;;;14.30;8.03;;;3.50;99.90;;;;;;5088782;28;20280;-71
2021/04/15 11:40:22;;;;;;;13.03;6.63;;;3.80;99.90;;;;;;5087521;28;20200;-71
2021/04/15 11:46:49;;;;;;;12.90;7.87;;;3.90;99.90;;;;;;5087856;28;20188;-71
2021/04/15 11:49:37;;;;;;;12.63;7.27;;;3.70;99.90;;;;;;5083404;28;20208;-71
2021/04/15 11:52:31;;;;;;;10.33;6.60;;;3.40;99.90;;;;;;5088888;28;20859;-70
2021/04/15 11:55:27;;;;;;;12.30;8.00;;;3.40;99.90;;;;;;5080856;28;20237;-70
2021/04/15 11:58:32;;;;;;;11.60;5.90;;;3.70;99.90;;;;;;5101038;28;20199;-71
2021/04/15 12:01:27;;;;;;;12.93;6.63;;;3.60;99.90;;;;;;5097292;28;20279;-71
2021/04/15 12:04:16;;;;;;;11.37;7.60;;;3.50;99.90;;;;;;5095576;28;20715;-70
2021/04/15 12:07:06;;;;;;;12.70;7.67;;;3.30;99.90;;;;;;5100484;28;20237;-70
2021/04/15 12:13:35;;;;;;;13.23;8.23;;;3.50;99.90;;;;;;5077856;28;20242;-70
2021/04/15 12:16:25;;;;;;;12.30;7.47;;;3.50;99.90;;;;;;5088799;28;20227;-71
2021/04/15 12:19:18;;;;;;;8.40;5.53;;;3.50;99.90;;;;;;5091102;28;20234;-71
2021/04/15 12:22:09;;;;;;;15.33;8.90;;;3.30;99.90;;;;;;5089948;28;20651;-71
2021/04/15 12:25:00;;;;;;;8.90;6.67;;;3.10;99.90;;;;;;5091242;28;20628;-70
2021/04/15 12:27:48;;;;;;;13.70;8.63;;;3.10;99.90;;;;;;5092246;28;20192;-70
2021/04/15 12:30:36;;;;;;;13.83;8.30;;;3.10;99.90;;;;;;5094640;28;20200;-71
2021/04/15 12:33:27;;;;;;;16.87;8.83;;;3.20;99.90;;;;;;5095188;28;20287;-71
2021/04/15 12:36:16;;;;;;;15.17;8.83;;;3.10;99.90;;;;;;5080732;28;20582;-71
2021/04/15 12:39:05;;;;;;;15.93;8.97;;;3.00;99.90;;;;;;5073175;28;20209;-71
2021/04/15 12:41:52;;;;;;;14.83;9.27;;;3.00;99.90;;;;;;5073217;28;20205;-70
2021/04/15 12:44:40;;;;;;;15.93;8.87;;;3.00;99.90;;;;;;5073287;28;20687;-70
2021/04/15 12:47:30;;;;;;;15.00;8.50;;;3.10;99.90;;;;;;5072966;28;20192;-71
2021/04/15 12:50:17;;;;;;;16.27;6.50;;;3.10;99.90;;;;;;5073537;28;20659;-71
2021/04/15 12:53:06;;;;;;;14.60;8.60;;;3.10;99.90;;;;;;5073323;28;20210;-71
2021/04/15 12:55:53;;;;;;;15.90;9.07;;;3.10;99.90;;;;;;5073891;28;20358;-70
2021/04/15 12:58:40;;;;;;;16.30;8.33;;;3.10;99.90;;;;;;5072850;28;20200;-71
2021/04/15 13:01:29;;;;;;;13.13;8.50;;;3.20;99.90;;;;;;5073990;28;20211;-71
2021/04/15 13:04:19;;;;;;;14.53;8.17;;;3.30;99.90;;;;;;5072539;28;20315;-71
2021/04/15 13:07:28;;;;;;;13.47;8.43;;;3.40;99.90;;;;;;5073089;28;20231;-71
2021/04/15 13:10:21;;;;;;;14.53;9.27;;;3.40;99.90;;;;;;5073507;28;20731;-71
2021/04/15 13:13:20;;;;;;;14.13;8.60;;;3.30;99.90;;;;;;5074209;28;20291;-71
2021/04/15 13:16:07;;;;;;;13.67;8.37;;;3.20;99.90;;;;;;5072743;28;20310;-71
2021/04/15 13:18:54;;;;;;;18.40;9.30;;;3.00;99.90;;;;;;5072437;28;20215;-71
2021/04/15 13:21:56;;;;;;;14.93;9.43;;;3.00;99.90;;;;;;5084601;28;20200;-71
2021/04/15 13:24:51;;;;;;;14.77;10.13;;;3.00;99.90;;;;;;5094079;28;20211;-71
2021/04/15 13:28:02;;;;;;;14.80;8.67;;;3.20;99.90;;;;;;5093578;28;20207;-71
2021/04/15 13:30:56;;;;;;;13.33;7.17;;;3.10;99.90;;;;;;5092562;28;20551;-71
2021/04/15 13:34:04;;;;;;;15.23;7.83;;;3.00;99.90;;;;;;5093514;28;20204;-71
2021/04/15 13:36:53;;;;;;;17.50;8.77;;;3.10;99.90;;;;;;5074647;28;20262;-70
2021/04/15 13:39:42;;;;;;;14.80;8.23;;;3.10;99.90;;;;;;5072528;28;20200;-71
2021/04/15 13:42:33;;;;;;;14.87;8.67;;;3.10;99.90;;;;;;5071711;28;20229;-71
2021/04/15 13:45:43;;;;;;;17.87;9.50;;;3.10;99.90;;;;;;5071894;28;20620;-70
2021/04/15 13:48:44;;;;;;;19.00;9.30;;;2.90;99.90;;;;;;5071870;28;20235;-71
2021/04/15 13:51:32;;;;;;;16.50;8.97;;;2.90;99.90;;;;;;5071393;28;20200;-71
2021/04/15 13:54:31;;;;;;;19.13;10.13;;;3.00;99.90;;;;;;5071661;28;20285;-71
2021/04/15 13:57:19;;;;;;;15.60;9.33;;;2.90;99.90;;;;;;5072017;28;20224;-71
2021/04/15 14:00:07;;;;;;;17.60;9.40;;;2.80;99.90;;;;;;5071934;28;20208;-71
2021/04/15 14:02:54;;;;;;;13.53;8.83;;;2.80;99.90;;;;;;5071399;28;20236;-70
2021/04/15 14:05:43;;;;;;;14.87;9.47;;;2.80;99.90;;;;;;5072035;28;20254;-71
2021/04/15 14:08:39;;;;;;;18.20;9.20;;;2.80;99.90;;;;;;5070828;28;20201;-71
2021/04/15 14:11:30;;;;;;;15.83;9.27;;;2.70;99.90;;;;;;5070816;28;20836;-71
2021/04/15 14:14:40;;;;;;;20.30;10.17;;;2.70;99.90;;;;;;5072026;28;20643;-71
2021/04/15 14:17:29;;;;;;;18.07;10.30;;;2.60;99.90;;;;;;5071895;28;20692;-71
2021/04/15 14:20:24;;;;;;;13.07;7.37;;;2.60;99.90;;;;;;5072468;28;20205;-71
2021/04/15 14:23:15;;;;;;;17.80;10.40;;;2.60;99.90;;;;;;5071590;28;20201;-72
2021/04/15 14:26:04;;;;;;;15.80;9.40;;;2.50;99.90;;;;;;5073436;28;20193;-70
2021/04/15 14:28:53;;;;;;;15.20;10.03;;;2.50;99.90;;;;;;5072193;28;20200;-71
2021/04/15 14:31:42;;;;;;;16.67;9.27;;;2.50;99.90;;;;;;5071721;28;20254;-71
2021/04/15 14:34:32;;;;;;;12.00;7.87;;;2.50;99.90;;;;;;5071887;28;20208;-71
2021/04/15 14:37:24;;;;;;;20.40;10.47;;;2.50;99.90;;;;;;5071118;28;20220;-71
2021/04/15 14:40:31;;;;;;;19.30;10.17;;;2.60;99.90;;;;;;5071922;28;20205;-71
2021/04/15 14:43:20;;;;;;;17.23;9.63;;;2.50;99.90;;;;;;5070912;28;20208;-71
2021/04/15 14:46:13;;;;;;;18.40;11.07;;;2.50;99.90;;;;;;5071722;28;20724;-71
2021/04/15 14:49:10;;;;;;;18.50;10.17;;;2.40;99.90;;;;;;5070980;28;20287;-71
2021/04/15 14:52:10;;;;;;;20.73;11.27;;;2.30;99.90;;;;;;5071647;28;20211;-71
2021/04/15 14:54:57;;;;;;;19.60;11.07;;;2.30;99.90;;;;;;5071253;28;20203;-71
2021/04/15 14:57:44;;;;;;;18.47;10.73;;;2.40;99.90;;;;;;5071677;28;20339;-71
2021/04/15 15:00:42;;;;;;;20.77;11.70;;;2.50;99.90;;;;;;5071173;28;20205;-71
2021/04/15 15:03:31;;;;;;;16.93;10.10;;;2.60;99.90;;;;;;5071521;28;20229;-71
2021/04/15 15:06:31;;;;;;;17.03;10.03;;;2.60;99.90;;;;;;5071888;28;20224;-71
2021/04/15 15:09:19;;;;;;;18.83;11.00;;;2.60;99.90;;;;;;5071601;28;20192;-71
2021/04/15 15:12:08;;;;;;;25.83;11.73;;;2.50;99.90;;;;;;5071424;28;20200;-71
2021/04/15 15:14:55;;;;;;;19.67;11.57;;;2.60;99.90;;;;;;5070379;28;20694;-71
2021/04/15 15:17:42;;;;;;;21.80;11.47;;;2.60;99.90;;;;;;5070901;28;20586;-71
2021/04/15 15:20:41;;;;;;;19.37;10.70;;;2.50;99.90;;;;;;5072671;28;20323;-71
2021/04/15 15:23:31;;;;;;;20.47;11.00;;;2.50;99.90;;;;;;5090482;28;20203;-71
2021/04/15 15:26:25;;;;;;;17.13;10.40;;;2.50;99.90;;;;;;5091631;28;20314;-71
2021/04/15 15:29:18;;;;;;;22.03;11.47;;;2.50;99.90;;;;;;5091126;28;20290;-71
2021/04/15 15:32:19;;;;;;;17.03;9.53;;;2.60;99.90;;;;;;5090473;28;20315;-71
2021/04/15 15:35:15;;;;;;;16.93;9.60;;;2.50;99.90;;;;;;5087831;28;20263;-70
2021/04/15 15:38:04;;;;;;;17.77;10.40;;;2.50;99.90;;;;;;5069604;28;20223;-70
2021/04/15 15:40:51;;;;;;;17.20;9.80;;;2.50;99.90;;;;;;5070679;28;20208;-70
2021/04/15 15:43:39;;;;;;;19.77;11.00;;;2.40;99.90;;;;;;5070670;28;20413;-71
2021/04/15 15:46:37;;;;;;;18.10;9.73;;;2.40;99.90;;;;;;5071260;28;20196;-71
2021/04/15 15:49:26;;;;;;;19.90;11.10;;;2.40;99.90;;;;;;5069876;28;20675;-71
2021/04/15 15:52:13;;;;;;;18.67;10.13;;;2.30;99.90;;;;;;5070507;28;20611;-71
2021/04/15 15:55:02;;;;;;;21.33;11.27;;;2.30;99.90;;;;;;5069725;28;20239;-71
2021/04/15 15:57:50;;;;;;;20.90;11.00;;;2.20;99.90;;;;;;5070844;28;20257;-71
2021/04/15 16:00:37;;;;;;;21.13;11.87;;;2.20;99.90;;;;;;5070389;28;20212;-71
2021/04/15 16:03:27;;;;;;;17.30;10.27;;;2.20;99.90;;;;;;5074522;28;20224;-71
2021/04/15 16:06:17;;;;;;;19.77;10.90;;;2.20;99.90;;;;;;5074222;28;20228;-71
2021/04/15 16:09:15;;;;;;;20.93;11.10;;;2.10;99.90;;;;;;5073618;28;20251;-71
2021/04/15 16:12:04;;;;;;;20.33;11.97;;;2.10;99.90;;;;;;5075225;28;20207;-71
2021/04/15 16:14:52;;;;;;;23.20;11.93;;;2.10;99.90;;;;;;5074732;28;20208;-71
2021/04/15 16:17:40;;;;;;;21.43;12.57;;;2.00;99.90;;;;;;5074360;28;20540;-71
2021/04/15 16:20:28;;;;;;;24.90;12.73;;;2.00;99.90;;;;;;5075327;28;20204;-70
2021/04/15 16:23:17;;;;;;;27.60;12.97;;;2.00;99.90;;;;;;5095462;28;20200;-70
2021/04/15 16:26:05;;;;;;;22.70;13.07;;;1.90;99.90;;;;;;5094170;28;20207;-71
2021/04/15 16:28:54;;;;;;;25.30;13.97;;;1.90;99.90;;;;;;5093539;28;20769;-71
2021/04/15 16:31:49;;;;;;;28.77;14.97;;;1.90;99.90;;;;;;5094244;28;20256;-71
2021/04/15 16:34:38;;;;;;;30.23;15.83;;;1.90;99.90;;;;;;5092845;28;20231;-71
2021/04/15 16:37:27;;;;;;;27.70;13.67;;;2.00;99.90;;;;;;5093810;28;20216;-71
2021/04/15 16:40:15;;;;;;;30.40;15.40;;;1.90;99.90;;;;;;5093302;28;20196;-71
2021/04/15 16:43:05;;;;;;;30.17;15.47;;;1.80;99.90;;;;;;5094255;28;20204;-71
2021/04/15 16:45:54;;;;;;;28.77;13.93;;;1.80;99.90;;;;;;5094033;28;20274;-71
2021/04/15 16:48:41;;;;;;;28.67;14.90;;;1.90;99.90;;;;;;5094530;28;20262;-70
2021/04/15 16:51:29;;;;;;;28.10;14.67;;;1.90;99.90;;;;;;5093394;28;20265;-70
2021/04/15 16:54:16;;;;;;;32.93;16.00;;;1.90;99.90;;;;;;5093123;28;20249;-70